sensor_id;sensor_type;location;lat;lon;timestamp;temperature;humidity
23237;DHT22;11787;52.018;8.570;2023-03-21T00:00:46;8.80;99.90
23237;DHT22;11787;52.018;8.570;2023-03-21T00:03:13;8.80;99.90
23237;DHT22;11787;52.018;8.570;2023-03-21T00:05:43;8.80;99.90
23237;DHT22;11787;52.018;8.570;2023-03-21T00:08:16;8.90;99.90
23237;DHT22;11787;52.018;8.570;2023-03-21T00:10:42;8.80;99.90
23237;DHT22;11787;52.018;8.570;2023-03-21T00:13:07;8.90;99.90
23237;DHT22;11787;52.018;8.570;2023-03-21T00:15:33;8.90;99.90
23237;DHT22;11787;52.018;8.570;2023-03-21T00:17:58;8.80;99.90
23237;DHT22;11787;52.018;8.570;2023-03-21T00:20:35;8.90;99.90
23237;DHT22;11787;52.018;8.570;2023-03-21T00:23:02;8.90;99.90
23237;DHT22;11787;52.018;8.570;2023-03-21T00:25:28;8.90;99.90
23237;DHT22;11787;52.018;8.570;2023-03-21T00:27:54;8.80;99.90
23237;DHT22;11787;52.018;8.570;2023-03-21T00:30:19;8.80;99.90
23237;DHT22;11787;52.018;8.570;2023-03-21T00:32:46;8.90;99.90
23237;DHT22;11787;52.018;8.570;2023-03-21T00:35:11;8.70;99.90
23237;DHT22;11787;52.018;8.570;2023-03-21T00:37:37;8.80;99.90
23237;DHT22;11787;52.018;8.570;2023-03-21T00:40:03;8.80;99.90
23237;DHT22;11787;52.018;8.570;2023-03-21T00:42:34;8.80;99.90
23237;DHT22;11787;52.018;8.570;2023-03-21T00:45:00;8.90;99.90
23237;DHT22;11787;52.018;8.570;2023-03-21T00:47:26;8.90;99.90
23237;DHT22;11787;52.018;8.570;2023-03-21T00:49:52;8.80;99.90
23237;DHT22;11787;52.018;8.570;2023-03-21T00:52:18;8.80;99.90
23237;DHT22;11787;52.018;8.570;2023-03-21T00:54:44;8.80;99.90
23237;DHT22;11787;52.018;8.570;2023-03-21T00:57:09;8.80;99.90
23237;DHT22;11787;52.018;8.570;2023-03-21T00:59:35;8.70;99.90
23237;DHT22;11787;52.018;8.570;2023-03-21T01:02:01;8.70;99.90
23237;DHT22;11787;52.018;8.570;2023-03-21T01:04:27;8.70;99.90
23237;DHT22;11787;52.018;8.570;2023-03-21T01:06:53;8.70;99.90
23237;DHT22;11787;52.018;8.570;2023-03-21T01:09:21;8.70;99.90
23237;DHT22;11787;52.018;8.570;2023-03-21T01:11:48;8.70;99.90
23237;DHT22;11787;52.018;8.570;2023-03-21T01:14:16;8.70;99.90
23237;DHT22;11787;52.018;8.570;2023-03-21T01:16:42;8.70;99.90
23237;DHT22;11787;52.018;8.570;2023-03-21T01:19:11;8.60;99.90
23237;DHT22;11787;52.018;8.570;2023-03-21T01:21:37;8.70;99.90
23237;DHT22;11787;52.018;8.570;2023-03-21T01:24:03;8.70;99.90
23237;DHT22;11787;52.018;8.570;2023-03-21T01:26:28;8.70;99.90
23237;DHT22;11787;52.018;8.570;2023-03-21T01:28:54;8.70;99.90
23237;DHT22;11787;52.018;8.570;2023-03-21T01:31:20;8.70;99.90
23237;DHT22;11787;52.018;8.570;2023-03-21T01:33:45;8.70;99.90
23237;DHT22;11787;52.018;8.570;2023-03-21T01:36:20;8.80;99.90
23237;DHT22;11787;52.018;8.570;2023-03-21T01:38:47;8.70;99.90
23237;DHT22;11787;52.018;8.570;2023-03-21T01:43:46;8.70;99.90
23237;DHT22;11787;52.018;8.570;2023-03-21T01:48:46;8.80;99.90
23237;DHT22;11787;52.018;8.570;2023-03-21T01:51:12;8.80;99.90
23237;DHT22;11787;52.018;8.570;2023-03-21T01:53:39;8.80;99.90
23237;DHT22;11787;52.018;8.570;2023-03-21T01:56:11;8.80;99.90
23237;DHT22;11787;52.018;8.570;2023-03-21T01:58:40;8.80;99.90
23237;DHT22;11787;52.018;8.570;2023-03-21T02:01:07;8.90;99.90
23237;DHT22;11787;52.018;8.570;2023-03-21T02:03:33;8.90;99.90
23237;DHT22;11787;52.018;8.570;2023-03-21T02:06:34;8.90;99.90
23237;DHT22;11787;52.018;8.570;2023-03-21T02:09:04;8.90;99.90
23237;DHT22;11787;52.018;8.570;2023-03-21T02:11:33;8.90;99.90
23237;DHT22;11787;52.018;8.570;2023-03-21T02:14:00;8.90;99.90
23237;DHT22;11787;52.018;8.570;2023-03-21T02:38:51;8.80;99.90
23237;DHT22;11787;52.018;8.570;2023-03-21T02:44:24;8.80;99.90
23237;DHT22;11787;52.018;8.570;2023-03-21T02:47:01;8.80;99.90
23237;DHT22;11787;52.018;8.570;2023-03-21T02:52:22;8.80;99.90
23237;DHT22;11787;52.018;8.570;2023-03-21T02:54:49;8.80;99.90
23237;DHT22;11787;52.018;8.570;2023-03-21T02:57:17;8.80;99.90
23237;DHT22;11787;52.018;8.570;2023-03-21T02:59:45;8.70;99.90
23237;DHT22;11787;52.018;8.570;2023-03-21T03:02:13;8.70;99.90
23237;DHT22;11787;52.018;8.570;2023-03-21T03:04:39;8.70;99.90
23237;DHT22;11787;52.018;8.570;2023-03-21T03:09:54;8.70;99.90
23237;DHT22;11787;52.018;8.570;2023-03-21T03:15:09;8.60;99.90
23237;DHT22;11787;52.018;8.570;2023-03-21T03:17:57;8.70;99.90
23237;DHT22;11787;52.018;8.570;2023-03-21T03:26:05;8.70;99.90
23237;DHT22;11787;52.018;8.570;2023-03-21T03:28:38;8.70;99.90
23237;DHT22;11787;52.018;8.570;2023-03-21T03:31:06;8.60;99.90
23237;DHT22;11787;52.018;8.570;2023-03-21T03:33:34;8.70;99.90
23237;DHT22;11787;52.018;8.570;2023-03-21T03:36:03;8.70;99.90
23237;DHT22;11787;52.018;8.570;2023-03-21T03:38:30;8.70;99.90
23237;DHT22;11787;52.018;8.570;2023-03-21T03:41:00;8.60;99.90
23237;DHT22;11787;52.018;8.570;2023-03-21T03:43:33;8.70;99.90
23237;DHT22;11787;52.018;8.570;2023-03-21T03:46:08;8.70;99.90
23237;DHT22;11787;52.018;8.570;2023-03-21T03:48:51;8.70;99.90
23237;DHT22;11787;52.018;8.570;2023-03-21T03:54:11;8.70;99.90
23237;DHT22;11787;52.018;8.570;2023-03-21T03:56:38;8.70;99.90
23237;DHT22;11787;52.018;8.570;2023-03-21T03:59:05;8.80;99.90
23237;DHT22;11787;52.018;8.570;2023-03-21T04:01:33;8.80;99.90
23237;DHT22;11787;52.018;8.570;2023-03-21T04:03:59;8.80;99.90
23237;DHT22;11787;52.018;8.570;2023-03-21T04:06:25;8.80;99.90
23237;DHT22;11787;52.018;8.570;2023-03-21T04:08:53;8.80;99.90
23237;DHT22;11787;52.018;8.570;2023-03-21T04:11:21;8.80;99.90
23237;DHT22;11787;52.018;8.570;2023-03-21T04:13:47;8.80;99.90
23237;DHT22;11787;52.018;8.570;2023-03-21T04:16:12;8.80;99.90
23237;DHT22;11787;52.018;8.570;2023-03-21T04:18:41;8.80;99.90
23237;DHT22;11787;52.018;8.570;2023-03-21T04:21:12;8.80;99.90
23237;DHT22;11787;52.018;8.570;2023-03-21T04:23:38;8.80;99.90
23237;DHT22;11787;52.018;8.570;2023-03-21T04:26:05;8.90;99.90
23237;DHT22;11787;52.018;8.570;2023-03-21T04:28:31;8.80;99.90
23237;DHT22;11787;52.018;8.570;2023-03-21T04:30:58;8.80;99.90
23237;DHT22;11787;52.018;8.570;2023-03-21T04:33:24;8.80;99.90
23237;DHT22;11787;52.018;8.570;2023-03-21T04:35:52;8.80;99.90
23237;DHT22;11787;52.018;8.570;2023-03-21T04:38:24;8.80;99.90
23237;DHT22;11787;52.018;8.570;2023-03-21T04:40:51;8.80;99.90
23237;DHT22;11787;52.018;8.570;2023-03-21T04:43:16;8.80;99.90
23237;DHT22;11787;52.018;8.570;2023-03-21T04:45:42;8.80;99.90
23237;DHT22;11787;52.018;8.570;2023-03-21T04:48:08;8.80;99.90
23237;DHT22;11787;52.018;8.570;2023-03-21T04:50:33;8.90;99.90
23237;DHT22;11787;52.018;8.570;2023-03-21T04:52:59;8.90;99.90
23237;DHT22;11787;52.018;8.570;2023-03-21T04:55:25;8.80;99.90
23237;DHT22;11787;52.018;8.570;2023-03-21T04:57:52;8.80;99.90
23237;DHT22;11787;52.018;8.570;2023-03-21T05:00:18;8.90;99.90
23237;DHT22;11787;52.018;8.570;2023-03-21T05:02:45;8.80;99.90
23237;DHT22;11787;52.018;8.570;2023-03-21T05:05:11;8.80;99.90
23237;DHT22;11787;52.018;8.570;2023-03-21T05:07:38;8.80;99.90
23237;DHT22;11787;52.018;8.570;2023-03-21T05:10:06;8.90;99.90
23237;DHT22;11787;52.018;8.570;2023-03-21T05:12:31;8.80;99.90
23237;DHT22;11787;52.018;8.570;2023-03-21T05:14:57;8.90;99.90
23237;DHT22;11787;52.018;8.570;2023-03-21T05:17:22;8.90;99.90
23237;DHT22;11787;52.018;8.570;2023-03-21T05:19:50;9.00;99.90
23237;DHT22;11787;52.018;8.570;2023-03-21T05:22:17;9.00;99.90
23237;DHT22;11787;52.018;8.570;2023-03-21T05:24:44;8.90;99.90
23237;DHT22;11787;52.018;8.570;2023-03-21T05:27:17;9.00;99.90
23237;DHT22;11787;52.018;8.570;2023-03-21T05:30:01;9.00;99.90
23237;DHT22;11787;52.018;8.570;2023-03-21T05:32:27;9.00;99.90
23237;DHT22;11787;52.018;8.570;2023-03-21T05:34:53;8.90;99.90
23237;DHT22;11787;52.018;8.570;2023-03-21T05:37:18;9.00;99.90
23237;DHT22;11787;52.018;8.570;2023-03-21T05:39:44;8.90;99.90
23237;DHT22;11787;52.018;8.570;2023-03-21T05:42:10;8.90;99.90
23237;DHT22;11787;52.018;8.570;2023-03-21T05:44:35;8.90;99.90
23237;DHT22;11787;52.018;8.570;2023-03-21T05:47:02;8.90;99.90
23237;DHT22;11787;52.018;8.570;2023-03-21T05:49:29;9.00;99.90
23237;DHT22;11787;52.018;8.570;2023-03-21T05:51:55;8.90;99.90
23237;DHT22;11787;52.018;8.570;2023-03-21T05:54:20;9.00;99.90
23237;DHT22;11787;52.018;8.570;2023-03-21T05:56:46;9.00;99.90
23237;DHT22;11787;52.018;8.570;2023-03-21T05:59:11;9.10;99.90
23237;DHT22;11787;52.018;8.570;2023-03-21T06:01:37;9.10;99.90
23237;DHT22;11787;52.018;8.570;2023-03-21T06:04:03;9.10;99.90
23237;DHT22;11787;52.018;8.570;2023-03-21T06:06:28;9.10;99.90
23237;DHT22;11787;52.018;8.570;2023-03-21T06:08:54;9.20;99.90
23237;DHT22;11787;52.018;8.570;2023-03-21T06:11:26;9.20;99.90
23237;DHT22;11787;52.018;8.570;2023-03-21T06:13:52;9.20;99.90
23237;DHT22;11787;52.018;8.570;2023-03-21T06:16:18;9.20;99.90
23237;DHT22;11787;52.018;8.570;2023-03-21T06:18:44;9.30;99.90
23237;DHT22;11787;52.018;8.570;2023-03-21T06:21:09;9.30;99.90
23237;DHT22;11787;52.018;8.570;2023-03-21T06:23:35;9.30;99.90
23237;DHT22;11787;52.018;8.570;2023-03-21T06:26:02;9.30;99.90
23237;DHT22;11787;52.018;8.570;2023-03-21T06:28:28;9.30;99.90
23237;DHT22;11787;52.018;8.570;2023-03-21T06:30:53;9.40;99.90
23237;DHT22;11787;52.018;8.570;2023-03-21T06:33:19;9.40;99.90
23237;DHT22;11787;52.018;8.570;2023-03-21T06:35:50;9.40;99.90
23237;DHT22;11787;52.018;8.570;2023-03-21T06:38:16;9.40;99.90
23237;DHT22;11787;52.018;8.570;2023-03-21T06:40:41;9.40;99.90
23237;DHT22;11787;52.018;8.570;2023-03-21T06:43:07;9.50;99.90
23237;DHT22;11787;52.018;8.570;2023-03-21T06:45:32;9.50;99.90
23237;DHT22;11787;52.018;8.570;2023-03-21T06:47:58;9.50;99.90
23237;DHT22;11787;52.018;8.570;2023-03-21T06:50:23;9.50;99.90
23237;DHT22;11787;52.018;8.570;2023-03-21T06:52:49;9.50;99.90
23237;DHT22;11787;52.018;8.570;2023-03-21T06:55:15;9.50;99.90
23237;DHT22;11787;52.018;8.570;2023-03-21T06:57:43;9.60;99.90
23237;DHT22;11787;52.018;8.570;2023-03-21T07:00:10;9.70;99.90
23237;DHT22;11787;52.018;8.570;2023-03-21T07:02:36;9.70;99.90
23237;DHT22;11787;52.018;8.570;2023-03-21T07:05:02;9.70;99.90
23237;DHT22;11787;52.018;8.570;2023-03-21T07:07:27;9.70;99.90
23237;DHT22;11787;52.018;8.570;2023-03-21T07:09:54;9.80;99.90
23237;DHT22;11787;52.018;8.570;2023-03-21T07:12:21;9.80;99.90
23237;DHT22;11787;52.018;8.570;2023-03-21T07:14:47;9.90;99.90
23237;DHT22;11787;52.018;8.570;2023-03-21T07:17:13;9.90;99.90
23237;DHT22;11787;52.018;8.570;2023-03-21T07:19:38;9.90;99.90
23237;DHT22;11787;52.018;8.570;2023-03-21T07:22:04;10.00;99.90
23237;DHT22;11787;52.018;8.570;2023-03-21T07:24:29;9.90;99.90
23237;DHT22;11787;52.018;8.570;2023-03-21T07:26:55;9.90;99.90
23237;DHT22;11787;52.018;8.570;2023-03-21T07:29:21;9.90;99.90
23237;DHT22;11787;52.018;8.570;2023-03-21T07:31:48;10.00;99.90
23237;DHT22;11787;52.018;8.570;2023-03-21T07:34:14;9.90;99.90
23237;DHT22;11787;52.018;8.570;2023-03-21T07:36:41;10.00;99.90
23237;DHT22;11787;52.018;8.570;2023-03-21T07:39:07;10.00;99.90
23237;DHT22;11787;52.018;8.570;2023-03-21T07:41:32;10.00;99.90
23237;DHT22;11787;52.018;8.570;2023-03-21T07:43:58;10.10;99.90
23237;DHT22;11787;52.018;8.570;2023-03-21T07:46:23;10.10;99.90
23237;DHT22;11787;52.018;8.570;2023-03-21T07:48:49;10.20;99.90
23237;DHT22;11787;52.018;8.570;2023-03-21T07:51:15;10.20;99.90
23237;DHT22;11787;52.018;8.570;2023-03-21T07:53:40;10.20;99.90
23237;DHT22;11787;52.018;8.570;2023-03-21T07:56:07;10.10;99.90
23237;DHT22;11787;52.018;8.570;2023-03-21T07:58:32;10.20;99.90
23237;DHT22;11787;52.018;8.570;2023-03-21T08:00:59;10.20;99.90
23237;DHT22;11787;52.018;8.570;2023-03-21T08:03:24;10.10;99.90
23237;DHT22;11787;52.018;8.570;2023-03-21T08:05:54;10.20;99.90
23237;DHT22;11787;52.018;8.570;2023-03-21T08:08:20;10.20;99.90
23237;DHT22;11787;52.018;8.570;2023-03-21T08:10:45;10.20;99.90
23237;DHT22;11787;52.018;8.570;2023-03-21T08:13:12;10.30;99.90
23237;DHT22;11787;52.018;8.570;2023-03-21T08:15:37;10.30;99.90
23237;DHT22;11787;52.018;8.570;2023-03-21T08:18:07;10.30;99.90
23237;DHT22;11787;52.018;8.570;2023-03-21T08:20:32;10.40;99.90
23237;DHT22;11787;52.018;8.570;2023-03-21T08:22:58;10.30;99.90
23237;DHT22;11787;52.018;8.570;2023-03-21T08:25:24;10.30;99.90
23237;DHT22;11787;52.018;8.570;2023-03-21T08:27:50;10.20;99.90
23237;DHT22;11787;52.018;8.570;2023-03-21T08:30:19;10.20;99.90
23237;DHT22;11787;52.018;8.570;2023-03-21T08:32:45;10.20;99.90
23237;DHT22;11787;52.018;8.570;2023-03-21T08:35:13;10.10;99.90
23237;DHT22;11787;52.018;8.570;2023-03-21T08:37:40;10.10;99.90
23237;DHT22;11787;52.018;8.570;2023-03-21T08:40:12;10.10;99.90
23237;DHT22;11787;52.018;8.570;2023-03-21T08:42:40;10.20;99.90
23237;DHT22;11787;52.018;8.570;2023-03-21T08:45:07;10.10;99.90
23237;DHT22;11787;52.018;8.570;2023-03-21T08:47:33;10.10;99.90
23237;DHT22;11787;52.018;8.570;2023-03-21T08:49:59;10.10;99.90
23237;DHT22;11787;52.018;8.570;2023-03-21T08:52:25;10.10;99.90
23237;DHT22;11787;52.018;8.570;2023-03-21T08:54:52;10.20;99.90
23237;DHT22;11787;52.018;8.570;2023-03-21T08:57:17;10.30;99.90
23237;DHT22;11787;52.018;8.570;2023-03-21T08:59:43;10.30;99.90
23237;DHT22;11787;52.018;8.570;2023-03-21T09:02:13;10.40;99.90
23237;DHT22;11787;52.018;8.570;2023-03-21T09:04:40;10.40;99.90
23237;DHT22;11787;52.018;8.570;2023-03-21T09:07:05;10.50;99.90
23237;DHT22;11787;52.018;8.570;2023-03-21T09:09:31;10.40;99.90
23237;DHT22;11787;52.018;8.570;2023-03-21T09:11:57;10.40;99.90
23237;DHT22;11787;52.018;8.570;2023-03-21T09:14:23;10.40;99.90
23237;DHT22;11787;52.018;8.570;2023-03-21T09:16:48;10.40;99.90
23237;DHT22;11787;52.018;8.570;2023-03-21T09:19:15;10.30;99.90
23237;DHT22;11787;52.018;8.570;2023-03-21T09:21:42;10.40;99.90
23237;DHT22;11787;52.018;8.570;2023-03-21T09:24:08;10.40;99.90
23237;DHT22;11787;52.018;8.570;2023-03-21T09:26:37;10.40;99.90
23237;DHT22;11787;52.018;8.570;2023-03-21T09:29:03;10.30;99.90
23237;DHT22;11787;52.018;8.570;2023-03-21T09:31:30;10.30;99.90
23237;DHT22;11787;52.018;8.570;2023-03-21T09:33:56;10.20;99.90
23237;DHT22;11787;52.018;8.570;2023-03-21T09:36:23;10.20;99.90
23237;DHT22;11787;52.018;8.570;2023-03-21T09:38:50;10.20;99.90
23237;DHT22;11787;52.018;8.570;2023-03-21T09:44:00;10.30;99.90
23237;DHT22;11787;52.018;8.570;2023-03-21T09:49:16;10.40;99.90
23237;DHT22;11787;52.018;8.570;2023-03-21T09:51:45;10.50;99.90
23237;DHT22;11787;52.018;8.570;2023-03-21T09:56:43;10.70;99.90
23237;DHT22;11787;52.018;8.570;2023-03-21T09:59:18;10.70;99.90
23237;DHT22;11787;52.018;8.570;2023-03-21T10:01:46;10.80;99.90
23237;DHT22;11787;52.018;8.570;2023-03-21T10:04:14;10.80;99.90
23237;DHT22;11787;52.018;8.570;2023-03-21T10:06:50;10.80;99.90
23237;DHT22;11787;52.018;8.570;2023-03-21T10:09:20;10.80;99.90
23237;DHT22;11787;52.018;8.570;2023-03-21T10:12:19;10.70;99.90
23237;DHT22;11787;52.018;8.570;2023-03-21T10:14:47;10.80;99.90
23237;DHT22;11787;52.018;8.570;2023-03-21T10:17:39;10.80;99.90
23237;DHT22;11787;52.018;8.570;2023-03-21T10:20:22;10.80;99.90
23237;DHT22;11787;52.018;8.570;2023-03-21T10:22:52;10.80;99.90
23237;DHT22;11787;52.018;8.570;2023-03-21T10:25:21;10.80;99.90
23237;DHT22;11787;52.018;8.570;2023-03-21T10:27:49;10.90;99.90
23237;DHT22;11787;52.018;8.570;2023-03-21T10:30:45;11.00;99.90
23237;DHT22;11787;52.018;8.570;2023-03-21T10:33:25;11.10;99.90
23237;DHT22;11787;52.018;8.570;2023-03-21T10:35:55;11.10;99.90
23237;DHT22;11787;52.018;8.570;2023-03-21T10:38:24;11.20;99.90
23237;DHT22;11787;52.018;8.570;2023-03-21T10:40:50;11.30;99.90
23237;DHT22;11787;52.018;8.570;2023-03-21T10:45:52;11.40;99.90
23237;DHT22;11787;52.018;8.570;2023-03-21T10:48:18;11.40;99.90
23237;DHT22;11787;52.018;8.570;2023-03-21T10:50:46;11.40;99.90
23237;DHT22;11787;52.018;8.570;2023-03-21T10:53:17;11.30;99.90
23237;DHT22;11787;52.018;8.570;2023-03-21T10:55:47;11.30;99.90
23237;DHT22;11787;52.018;8.570;2023-03-21T10:58:18;11.30;99.90
23237;DHT22;11787;52.018;8.570;2023-03-21T11:00:54;11.50;99.90
23237;DHT22;11787;52.018;8.570;2023-03-21T11:03:28;11.40;99.90
23237;DHT22;11787;52.018;8.570;2023-03-21T11:06:06;11.40;99.90
23237;DHT22;11787;52.018;8.570;2023-03-21T11:08:42;11.40;99.90
23237;DHT22;11787;52.018;8.570;2023-03-21T11:11:10;11.40;99.90
23237;DHT22;11787;52.018;8.570;2023-03-21T11:13:44;11.40;99.90
23237;DHT22;11787;52.018;8.570;2023-03-21T11:16:17;11.30;99.90
23237;DHT22;11787;52.018;8.570;2023-03-21T11:18:44;11.30;99.90
23237;DHT22;11787;52.018;8.570;2023-03-21T11:21:14;11.30;99.90
23237;DHT22;11787;52.018;8.570;2023-03-21T11:23:43;11.40;99.90
23237;DHT22;11787;52.018;8.570;2023-03-21T11:26:21;11.40;99.90
23237;DHT22;11787;52.018;8.570;2023-03-21T11:28:51;11.30;99.90
23237;DHT22;11787;52.018;8.570;2023-03-21T11:31:18;11.30;99.90
23237;DHT22;11787;52.018;8.570;2023-03-21T11:33:51;11.30;99.90
23237;DHT22;11787;52.018;8.570;2023-03-21T11:38:43;11.30;99.90
23237;DHT22;11787;52.018;8.570;2023-03-21T11:41:21;11.30;99.90
23237;DHT22;11787;52.018;8.570;2023-03-21T11:43:52;11.30;99.90
23237;DHT22;11787;52.018;8.570;2023-03-21T11:46:26;11.40;99.90
23237;DHT22;11787;52.018;8.570;2023-03-21T11:48:54;11.30;99.90
23237;DHT22;11787;52.018;8.570;2023-03-21T11:53:57;11.40;99.90
23237;DHT22;11787;52.018;8.570;2023-03-21T11:56:32;11.30;99.90
23237;DHT22;11787;52.018;8.570;2023-03-21T12:05:08;11.30;99.90
23237;DHT22;11787;52.018;8.570;2023-03-21T12:22:09;11.10;99.90
23237;DHT22;11787;52.018;8.570;2023-03-21T12:24:49;11.20;99.90
23237;DHT22;11787;52.018;8.570;2023-03-21T12:35:39;11.30;99.90
23237;DHT22;11787;52.018;8.570;2023-03-21T12:38:23;11.30;99.90
23237;DHT22;11787;52.018;8.570;2023-03-21T12:43:43;11.30;99.90
23237;DHT22;11787;52.018;8.570;2023-03-21T12:46:23;11.30;99.90
23237;DHT22;11787;52.018;8.570;2023-03-21T12:48:52;11.30;99.90
23237;DHT22;11787;52.018;8.570;2023-03-21T12:51:29;11.30;99.90
23237;DHT22;11787;52.018;8.570;2023-03-21T12:56:48;11.40;99.90
23237;DHT22;11787;52.018;8.570;2023-03-21T12:59:35;11.40;99.90
23237;DHT22;11787;52.018;8.570;2023-03-21T13:19:57;11.20;99.90
23237;DHT22;11787;52.018;8.570;2023-03-21T13:22:29;11.20;99.90
23237;DHT22;11787;52.018;8.570;2023-03-21T13:25:18;11.30;99.90
23237;DHT22;11787;52.018;8.570;2023-03-21T13:28:02;11.30;99.90
23237;DHT22;11787;52.018;8.570;2023-03-21T13:30:29;11.50;99.90
23237;DHT22;11787;52.018;8.570;2023-03-21T13:33:20;11.60;99.90
23237;DHT22;11787;52.018;8.570;2023-03-21T13:36:15;11.60;99.90
23237;DHT22;11787;52.018;8.570;2023-03-21T13:38:40;11.70;99.90
23237;DHT22;11787;52.018;8.570;2023-03-21T13:41:15;11.80;99.90
23237;DHT22;11787;52.018;8.570;2023-03-21T13:43:51;11.90;99.90
23237;DHT22;11787;52.018;8.570;2023-03-21T13:49:12;11.80;99.90
23237;DHT22;11787;52.018;8.570;2023-03-21T13:54:16;12.00;99.90
23237;DHT22;11787;52.018;8.570;2023-03-21T13:59:12;12.10;99.90
23237;DHT22;11787;52.018;8.570;2023-03-21T14:04:38;11.90;99.90
23237;DHT22;11787;52.018;8.570;2023-03-21T14:07:11;11.90;99.90
23237;DHT22;11787;52.018;8.570;2023-03-21T14:09:47;12.00;99.90
23237;DHT22;11787;52.018;8.570;2023-03-21T14:12:18;12.20;99.90
23237;DHT22;11787;52.018;8.570;2023-03-21T14:14:56;12.10;99.90
23237;DHT22;11787;52.018;8.570;2023-03-21T14:17:26;12.10;99.90
23237;DHT22;11787;52.018;8.570;2023-03-21T14:20:22;12.10;99.90
23237;DHT22;11787;52.018;8.570;2023-03-21T14:22:48;12.10;99.90
23237;DHT22;11787;52.018;8.570;2023-03-21T14:25:17;12.10;99.90
23237;DHT22;11787;52.018;8.570;2023-03-21T14:27:49;12.10;99.90
23237;DHT22;11787;52.018;8.570;2023-03-21T14:30:28;12.10;99.90
23237;DHT22;11787;52.018;8.570;2023-03-21T14:35:40;12.10;99.90
23237;DHT22;11787;52.018;8.570;2023-03-21T14:38:16;12.20;99.90
23237;DHT22;11787;52.018;8.570;2023-03-21T14:40:48;12.20;99.90
23237;DHT22;11787;52.018;8.570;2023-03-21T14:43:16;12.20;99.90
23237;DHT22;11787;52.018;8.570;2023-03-21T14:45:42;12.20;99.90
23237;DHT22;11787;52.018;8.570;2023-03-21T14:48:12;12.10;99.90
23237;DHT22;11787;52.018;8.570;2023-03-21T14:50:48;12.10;99.90
23237;DHT22;11787;52.018;8.570;2023-03-21T14:53:35;12.00;99.90
23237;DHT22;11787;52.018;8.570;2023-03-21T14:58:33;12.10;99.90
23237;DHT22;11787;52.018;8.570;2023-03-21T15:01:04;12.00;99.90
23237;DHT22;11787;52.018;8.570;2023-03-21T15:03:31;12.00;99.90
23237;DHT22;11787;52.018;8.570;2023-03-21T15:05:57;12.00;99.90
23237;DHT22;11787;52.018;8.570;2023-03-21T15:08:26;11.90;99.90
23237;DHT22;11787;52.018;8.570;2023-03-21T15:11:07;11.90;99.90
23237;DHT22;11787;52.018;8.570;2023-03-21T15:13:38;11.90;99.90
23237;DHT22;11787;52.018;8.570;2023-03-21T15:16:05;11.90;99.90
23237;DHT22;11787;52.018;8.570;2023-03-21T15:18:33;11.90;99.90
23237;DHT22;11787;52.018;8.570;2023-03-21T15:21:01;11.90;99.90
23237;DHT22;11787;52.018;8.570;2023-03-21T15:23:32;11.90;99.90
23237;DHT22;11787;52.018;8.570;2023-03-21T15:26:04;11.90;99.90
23237;DHT22;11787;52.018;8.570;2023-03-21T15:28:31;11.80;99.90
23237;DHT22;11787;52.018;8.570;2023-03-21T15:30:57;11.80;99.90
23237;DHT22;11787;52.018;8.570;2023-03-21T15:33:23;11.80;99.90
23237;DHT22;11787;52.018;8.570;2023-03-21T15:35:50;11.80;99.90
23237;DHT22;11787;52.018;8.570;2023-03-21T15:41:11;11.80;99.90
23237;DHT22;11787;52.018;8.570;2023-03-21T15:43:37;11.70;99.90
23237;DHT22;11787;52.018;8.570;2023-03-21T15:46:02;11.80;99.90
23237;DHT22;11787;52.018;8.570;2023-03-21T15:48:36;11.80;99.90
23237;DHT22;11787;52.018;8.570;2023-03-21T15:51:03;11.70;99.90
23237;DHT22;11787;52.018;8.570;2023-03-21T15:53:33;11.70;99.90
23237;DHT22;11787;52.018;8.570;2023-03-21T15:55:59;11.70;99.90
23237;DHT22;11787;52.018;8.570;2023-03-21T15:58:27;11.70;99.90
23237;DHT22;11787;52.018;8.570;2023-03-21T16:01:00;11.70;99.90
23237;DHT22;11787;52.018;8.570;2023-03-21T16:03:27;11.60;99.90
23237;DHT22;11787;52.018;8.570;2023-03-21T16:06:13;11.60;99.90
23237;DHT22;11787;52.018;8.570;2023-03-21T16:11:27;11.50;99.90
23237;DHT22;11787;52.018;8.570;2023-03-21T16:13:53;11.50;99.90
23237;DHT22;11787;52.018;8.570;2023-03-21T16:16:20;11.40;99.90
23237;DHT22;11787;52.018;8.570;2023-03-21T16:18:46;11.40;99.90
23237;DHT22;11787;52.018;8.570;2023-03-21T16:21:13;11.30;99.90
23237;DHT22;11787;52.018;8.570;2023-03-21T16:23:39;11.30;99.90
23237;DHT22;11787;52.018;8.570;2023-03-21T16:26:05;11.30;99.90
23237;DHT22;11787;52.018;8.570;2023-03-21T16:28:31;11.30;99.90
23237;DHT22;11787;52.018;8.570;2023-03-21T16:30:56;11.30;99.90
23237;DHT22;11787;52.018;8.570;2023-03-21T16:33:22;11.30;99.90
23237;DHT22;11787;52.018;8.570;2023-03-21T16:35:50;11.40;99.90
23237;DHT22;11787;52.018;8.570;2023-03-21T16:38:16;11.20;99.90
23237;DHT22;11787;52.018;8.570;2023-03-21T16:40:42;11.30;99.90
23237;DHT22;11787;52.018;8.570;2023-03-21T16:43:07;11.30;99.90
23237;DHT22;11787;52.018;8.570;2023-03-21T16:45:33;11.30;99.90
23237;DHT22;11787;52.018;8.570;2023-03-21T16:47:58;11.20;99.90
23237;DHT22;11787;52.018;8.570;2023-03-21T16:50:34;11.20;99.90
23237;DHT22;11787;52.018;8.570;2023-03-21T16:53:00;11.20;99.90
23237;DHT22;11787;52.018;8.570;2023-03-21T16:55:26;11.20;99.90
23237;DHT22;11787;52.018;8.570;2023-03-21T16:57:52;11.10;99.90
23237;DHT22;11787;52.018;8.570;2023-03-21T17:00:24;11.10;99.90
23237;DHT22;11787;52.018;8.570;2023-03-21T17:02:52;11.10;99.90
23237;DHT22;11787;52.018;8.570;2023-03-21T17:05:22;11.10;99.90
23237;DHT22;11787;52.018;8.570;2023-03-21T17:07:50;11.10;99.90
23237;DHT22;11787;52.018;8.570;2023-03-21T17:10:22;11.00;99.90
23237;DHT22;11787;52.018;8.570;2023-03-21T17:12:48;11.00;99.90
23237;DHT22;11787;52.018;8.570;2023-03-21T17:15:14;11.00;99.90
23237;DHT22;11787;52.018;8.570;2023-03-21T17:17:40;11.00;99.90
23237;DHT22;11787;52.018;8.570;2023-03-21T17:20:17;10.90;99.90
23237;DHT22;11787;52.018;8.570;2023-03-21T17:22:44;11.00;99.90
23237;DHT22;11787;52.018;8.570;2023-03-21T17:25:10;10.90;99.90
23237;DHT22;11787;52.018;8.570;2023-03-21T17:27:36;10.90;99.90
23237;DHT22;11787;52.018;8.570;2023-03-21T17:30:02;10.90;99.90
23237;DHT22;11787;52.018;8.570;2023-03-21T17:32:28;10.90;99.90
23237;DHT22;11787;52.018;8.570;2023-03-21T17:34:54;10.90;99.90
23237;DHT22;11787;52.018;8.570;2023-03-21T17:37:19;10.90;99.90
23237;DHT22;11787;52.018;8.570;2023-03-21T17:39:46;10.90;99.90
23237;DHT22;11787;52.018;8.570;2023-03-21T17:42:13;10.80;99.90
23237;DHT22;11787;52.018;8.570;2023-03-21T17:44:45;10.80;99.90
23237;DHT22;11787;52.018;8.570;2023-03-21T17:47:10;10.80;99.90
23237;DHT22;11787;52.018;8.570;2023-03-21T17:49:36;10.70;99.90
23237;DHT22;11787;52.018;8.570;2023-03-21T17:52:02;10.70;99.90
23237;DHT22;11787;52.018;8.570;2023-03-21T17:54:27;10.70;99.90
23237;DHT22;11787;52.018;8.570;2023-03-21T17:56:53;10.70;99.90
23237;DHT22;11787;52.018;8.570;2023-03-21T17:59:20;10.60;99.90
23237;DHT22;11787;52.018;8.570;2023-03-21T18:01:46;10.70;99.90
23237;DHT22;11787;52.018;8.570;2023-03-21T18:04:11;10.70;99.90